sensor_id;sensor_type;location;lat;lon;timestamp;temperature;humidity
35027;DHT22;60696;51.426;6.934;2023-03-14T00:00:27;11.00;99.90
35027;DHT22;60696;51.426;6.934;2023-03-14T00:02:53;11.00;99.90
35027;DHT22;60696;51.426;6.934;2023-03-14T00:05:19;10.90;99.90
35027;DHT22;60696;51.426;6.934;2023-03-14T00:07:45;10.90;99.90
35027;DHT22;60696;51.426;6.934;2023-03-14T00:10:13;11.00;99.90
35027;DHT22;60696;51.426;6.934;2023-03-14T00:12:40;11.00;99.90
35027;DHT22;60696;51.426;6.934;2023-03-14T00:15:06;11.00;99.90
35027;DHT22;60696;51.426;6.934;2023-03-14T00:17:33;11.00;99.90
35027;DHT22;60696;51.426;6.934;2023-03-14T00:19:59;11.10;99.90
35027;DHT22;60696;51.426;6.934;2023-03-14T00:22:31;11.20;99.90
35027;DHT22;60696;51.426;6.934;2023-03-14T00:24:57;11.20;99.90
35027;DHT22;60696;51.426;6.934;2023-03-14T00:27:23;11.20;99.90
35027;DHT22;60696;51.426;6.934;2023-03-14T00:29:48;11.20;99.90
35027;DHT22;60696;51.426;6.934;2023-03-14T00:32:14;11.20;99.90
35027;DHT22;60696;51.426;6.934;2023-03-14T00:34:39;11.20;99.90
35027;DHT22;60696;51.426;6.934;2023-03-14T00:37:05;11.30;99.90
35027;DHT22;60696;51.426;6.934;2023-03-14T00:39:31;11.20;99.90
35027;DHT22;60696;51.426;6.934;2023-03-14T00:41:56;11.30;99.90
35027;DHT22;60696;51.426;6.934;2023-03-14T00:44:22;11.20;99.90
35027;DHT22;60696;51.426;6.934;2023-03-14T00:46:48;11.00;99.90
35027;DHT22;60696;51.426;6.934;2023-03-14T00:49:13;10.80;99.90
35027;DHT22;60696;51.426;6.934;2023-03-14T00:51:39;10.60;99.90
35027;DHT22;60696;51.426;6.934;2023-03-14T00:54:04;10.50;99.90
35027;DHT22;60696;51.426;6.934;2023-03-14T00:56:30;10.40;99.90
35027;DHT22;60696;51.426;6.934;2023-03-14T00:58:56;10.20;99.90
35027;DHT22;60696;51.426;6.934;2023-03-14T01:01:22;10.10;99.90
35027;DHT22;60696;51.426;6.934;2023-03-14T01:03:51;10.00;99.90
35027;DHT22;60696;51.426;6.934;2023-03-14T01:06:20;9.90;99.90
35027;DHT22;60696;51.426;6.934;2023-03-14T01:08:46;9.90;99.90
35027;DHT22;60696;51.426;6.934;2023-03-14T01:11:17;9.80;99.90
35027;DHT22;60696;51.426;6.934;2023-03-14T01:13:43;9.70;99.90
35027;DHT22;60696;51.426;6.934;2023-03-14T01:16:10;9.70;99.90
35027;DHT22;60696;51.426;6.934;2023-03-14T01:18:37;9.60;99.90
35027;DHT22;60696;51.426;6.934;2023-03-14T01:21:09;9.60;99.90
35027;DHT22;60696;51.426;6.934;2023-03-14T01:23:35;9.60;99.90
35027;DHT22;60696;51.426;6.934;2023-03-14T01:26:00;9.60;99.90
35027;DHT22;60696;51.426;6.934;2023-03-14T01:28:26;9.60;99.90
35027;DHT22;60696;51.426;6.934;2023-03-14T01:30:51;9.60;99.90
35027;DHT22;60696;51.426;6.934;2023-03-14T01:33:17;9.60;99.90
35027;DHT22;60696;51.426;6.934;2023-03-14T01:35:42;9.70;99.90
35027;DHT22;60696;51.426;6.934;2023-03-14T01:38:08;9.70;99.90
35027;DHT22;60696;51.426;6.934;2023-03-14T01:40:34;9.70;99.90
35027;DHT22;60696;51.426;6.934;2023-03-14T01:43:14;9.70;99.90
35027;DHT22;60696;51.426;6.934;2023-03-14T01:51:24;9.60;99.90
35027;DHT22;60696;51.426;6.934;2023-03-14T01:53:51;9.60;99.90
35027;DHT22;60696;51.426;6.934;2023-03-14T01:56:18;9.50;99.90
35027;DHT22;60696;51.426;6.934;2023-03-14T01:58:47;9.50;99.90
35027;DHT22;60696;51.426;6.934;2023-03-14T02:01:16;9.50;99.90
35027;DHT22;60696;51.426;6.934;2023-03-14T02:03:52;9.50;99.90
35027;DHT22;60696;51.426;6.934;2023-03-14T02:06:24;9.50;99.90
35027;DHT22;60696;51.426;6.934;2023-03-14T02:08:52;9.60;99.90
35027;DHT22;60696;51.426;6.934;2023-03-14T02:11:18;9.60;99.90
35027;DHT22;60696;51.426;6.934;2023-03-14T02:13:44;9.60;99.90
35027;DHT22;60696;51.426;6.934;2023-03-14T02:16:10;9.60;99.90
35027;DHT22;60696;51.426;6.934;2023-03-14T02:18:37;9.60;99.90
35027;DHT22;60696;51.426;6.934;2023-03-14T02:29:29;9.70;99.90
35027;DHT22;60696;51.426;6.934;2023-03-14T02:31:55;9.70;99.90
35027;DHT22;60696;51.426;6.934;2023-03-14T02:34:21;9.70;99.90
35027;DHT22;60696;51.426;6.934;2023-03-14T02:36:47;9.70;99.90
35027;DHT22;60696;51.426;6.934;2023-03-14T02:39:23;9.70;99.90
35027;DHT22;60696;51.426;6.934;2023-03-14T02:41:50;9.70;99.90
35027;DHT22;60696;51.426;6.934;2023-03-14T02:44:15;9.80;99.90
35027;DHT22;60696;51.426;6.934;2023-03-14T02:46:41;9.80;99.90
35027;DHT22;60696;51.426;6.934;2023-03-14T02:49:09;9.80;99.90
35027;DHT22;60696;51.426;6.934;2023-03-14T02:51:35;9.80;99.90
35027;DHT22;60696;51.426;6.934;2023-03-14T02:54:01;9.80;99.90
35027;DHT22;60696;51.426;6.934;2023-03-14T02:56:27;9.80;99.90
35027;DHT22;60696;51.426;6.934;2023-03-14T02:58:53;9.80;99.90
35027;DHT22;60696;51.426;6.934;2023-03-14T03:01:19;9.80;99.90
35027;DHT22;60696;51.426;6.934;2023-03-14T03:03:44;9.80;99.90
35027;DHT22;60696;51.426;6.934;2023-03-14T03:06:10;9.80;99.90
35027;DHT22;60696;51.426;6.934;2023-03-14T03:08:35;9.70;99.90
35027;DHT22;60696;51.426;6.934;2023-03-14T03:11:01;9.70;99.90
35027;DHT22;60696;51.426;6.934;2023-03-14T03:13:27;9.70;99.90
35027;DHT22;60696;51.426;6.934;2023-03-14T03:15:53;9.70;99.90
35027;DHT22;60696;51.426;6.934;2023-03-14T03:18:19;9.70;99.90
35027;DHT22;60696;51.426;6.934;2023-03-14T03:20:45;9.70;99.90
35027;DHT22;60696;51.426;6.934;2023-03-14T03:23:11;9.70;99.90
35027;DHT22;60696;51.426;6.934;2023-03-14T03:25:37;9.80;99.90
35027;DHT22;60696;51.426;6.934;2023-03-14T03:28:02;9.80;99.90
35027;DHT22;60696;51.426;6.934;2023-03-14T03:30:39;9.80;99.90
35027;DHT22;60696;51.426;6.934;2023-03-14T03:33:05;9.80;99.90
35027;DHT22;60696;51.426;6.934;2023-03-14T03:35:31;9.70;99.90
35027;DHT22;60696;51.426;6.934;2023-03-14T03:37:57;9.80;99.90
35027;DHT22;60696;51.426;6.934;2023-03-14T03:40:23;9.70;99.90
35027;DHT22;60696;51.426;6.934;2023-03-14T03:42:48;9.70;99.90
35027;DHT22;60696;51.426;6.934;2023-03-14T03:45:14;9.70;99.90
35027;DHT22;60696;51.426;6.934;2023-03-14T03:47:40;9.70;99.90
35027;DHT22;60696;51.426;6.934;2023-03-14T03:50:06;9.70;99.90
35027;DHT22;60696;51.426;6.934;2023-03-14T03:52:31;9.60;99.90
35027;DHT22;60696;51.426;6.934;2023-03-14T03:54:57;9.50;99.90
35027;DHT22;60696;51.426;6.934;2023-03-14T03:57:22;9.50;99.90
35027;DHT22;60696;51.426;6.934;2023-03-14T03:59:48;9.50;99.90
35027;DHT22;60696;51.426;6.934;2023-03-14T04:02:14;9.40;99.90
35027;DHT22;60696;51.426;6.934;2023-03-14T04:04:39;9.40;99.90
35027;DHT22;60696;51.426;6.934;2023-03-14T04:07:05;9.40;99.90
35027;DHT22;60696;51.426;6.934;2023-03-14T04:09:31;9.30;99.90
35027;DHT22;60696;51.426;6.934;2023-03-14T04:11:56;9.40;99.90
35027;DHT22;60696;51.426;6.934;2023-03-14T04:14:22;9.40;99.90
35027;DHT22;60696;51.426;6.934;2023-03-14T04:16:48;9.40;99.90
35027;DHT22;60696;51.426;6.934;2023-03-14T04:19:14;9.30;99.90
35027;DHT22;60696;51.426;6.934;2023-03-14T04:21:39;9.30;99.90
35027;DHT22;60696;51.426;6.934;2023-03-14T04:24:10;9.30;99.90
35027;DHT22;60696;51.426;6.934;2023-03-14T04:26:35;9.20;99.90
35027;DHT22;60696;51.426;6.934;2023-03-14T04:29:01;9.10;99.90
35027;DHT22;60696;51.426;6.934;2023-03-14T04:31:26;9.10;99.90
35027;DHT22;60696;51.426;6.934;2023-03-14T04:33:52;9.00;99.90
35027;DHT22;60696;51.426;6.934;2023-03-14T04:36:18;9.00;99.90
35027;DHT22;60696;51.426;6.934;2023-03-14T04:38:43;8.90;99.90
35027;DHT22;60696;51.426;6.934;2023-03-14T04:41:09;8.90;99.90
35027;DHT22;60696;51.426;6.934;2023-03-14T04:43:35;8.80;99.90
35027;DHT22;60696;51.426;6.934;2023-03-14T04:46:00;8.90;99.90
35027;DHT22;60696;51.426;6.934;2023-03-14T04:48:26;8.80;99.90
35027;DHT22;60696;51.426;6.934;2023-03-14T04:50:52;8.80;99.90
35027;DHT22;60696;51.426;6.934;2023-03-14T04:53:18;8.70;99.90
35027;DHT22;60696;51.426;6.934;2023-03-14T04:55:48;8.70;99.90
35027;DHT22;60696;51.426;6.934;2023-03-14T04:58:14;8.70;99.90
35027;DHT22;60696;51.426;6.934;2023-03-14T05:00:40;8.60;99.90
35027;DHT22;60696;51.426;6.934;2023-03-14T05:03:05;8.60;99.90
35027;DHT22;60696;51.426;6.934;2023-03-14T05:05:31;8.60;99.90
35027;DHT22;60696;51.426;6.934;2023-03-14T05:07:57;8.60;99.90
35027;DHT22;60696;51.426;6.934;2023-03-14T05:10:22;8.60;99.90
35027;DHT22;60696;51.426;6.934;2023-03-14T05:12:48;8.60;99.90
35027;DHT22;60696;51.426;6.934;2023-03-14T05:15:13;8.60;99.90
35027;DHT22;60696;51.426;6.934;2023-03-14T05:17:39;8.50;99.90
35027;DHT22;60696;51.426;6.934;2023-03-14T05:20:05;8.60;99.90
35027;DHT22;60696;51.426;6.934;2023-03-14T05:22:34;8.60;99.90
35027;DHT22;60696;51.426;6.934;2023-03-14T05:25:00;8.60;99.90
35027;DHT22;60696;51.426;6.934;2023-03-14T05:27:25;8.60;99.90
35027;DHT22;60696;51.426;6.934;2023-03-14T05:29:51;8.60;99.90
35027;DHT22;60696;51.426;6.934;2023-03-14T05:32:16;8.60;99.90
35027;DHT22;60696;51.426;6.934;2023-03-14T05:34:42;8.60;99.90
35027;DHT22;60696;51.426;6.934;2023-03-14T05:37:07;8.70;99.90
35027;DHT22;60696;51.426;6.934;2023-03-14T05:39:33;8.70;99.90
35027;DHT22;60696;51.426;6.934;2023-03-14T05:41:59;8.70;99.90
35027;DHT22;60696;51.426;6.934;2023-03-14T05:44:24;8.70;99.90
35027;DHT22;60696;51.426;6.934;2023-03-14T05:46:50;8.70;99.90
35027;DHT22;60696;51.426;6.934;2023-03-14T05:49:15;8.70;99.90
35027;DHT22;60696;51.426;6.934;2023-03-14T05:51:42;8.70;99.90
35027;DHT22;60696;51.426;6.934;2023-03-14T05:54:07;8.70;99.90
35027;DHT22;60696;51.426;6.934;2023-03-14T05:56:33;8.70;99.90
35027;DHT22;60696;51.426;6.934;2023-03-14T05:58:59;8.70;99.90
35027;DHT22;60696;51.426;6.934;2023-03-14T06:01:27;8.70;99.90
35027;DHT22;60696;51.426;6.934;2023-03-14T06:03:53;8.70;99.90
35027;DHT22;60696;51.426;6.934;2023-03-14T06:06:18;8.80;99.90
35027;DHT22;60696;51.426;6.934;2023-03-14T06:08:44;8.80;99.90
35027;DHT22;60696;51.426;6.934;2023-03-14T06:11:09;8.80;99.90
35027;DHT22;60696;51.426;6.934;2023-03-14T06:13:35;8.80;99.90
35027;DHT22;60696;51.426;6.934;2023-03-14T06:16:01;8.90;99.90
35027;DHT22;60696;51.426;6.934;2023-03-14T06:18:26;8.90;99.90
35027;DHT22;60696;51.426;6.934;2023-03-14T06:20:55;8.90;99.90
35027;DHT22;60696;51.426;6.934;2023-03-14T06:23:22;9.00;99.90
35027;DHT22;60696;51.426;6.934;2023-03-14T06:25:48;9.00;99.90
35027;DHT22;60696;51.426;6.934;2023-03-14T06:28:13;9.00;99.90
35027;DHT22;60696;51.426;6.934;2023-03-14T06:30:39;9.00;99.90
35027;DHT22;60696;51.426;6.934;2023-03-14T06:33:04;9.10;99.90
35027;DHT22;60696;51.426;6.934;2023-03-14T06:35:30;9.10;99.90
35027;DHT22;60696;51.426;6.934;2023-03-14T06:37:56;9.10;99.90
35027;DHT22;60696;51.426;6.934;2023-03-14T06:40:21;9.20;99.90
35027;DHT22;60696;51.426;6.934;2023-03-14T06:42:47;9.20;99.90
35027;DHT22;60696;51.426;6.934;2023-03-14T06:45:13;9.30;99.90
35027;DHT22;60696;51.426;6.934;2023-03-14T06:47:39;9.30;99.90
35027;DHT22;60696;51.426;6.934;2023-03-14T06:50:10;9.30;99.90
35027;DHT22;60696;51.426;6.934;2023-03-14T06:52:36;9.40;99.90
35027;DHT22;60696;51.426;6.934;2023-03-14T06:55:01;9.40;99.90
35027;DHT22;60696;51.426;6.934;2023-03-14T06:57:27;9.50;99.90
35027;DHT22;60696;51.426;6.934;2023-03-14T06:59:53;9.50;99.90
35027;DHT22;60696;51.426;6.934;2023-03-14T07:02:18;9.60;99.90
35027;DHT22;60696;51.426;6.934;2023-03-14T07:04:44;9.60;99.90
35027;DHT22;60696;51.426;6.934;2023-03-14T07:07:09;9.60;99.90
35027;DHT22;60696;51.426;6.934;2023-03-14T07:09:35;9.70;99.90
35027;DHT22;60696;51.426;6.934;2023-03-14T07:12:01;9.60;99.90
35027;DHT22;60696;51.426;6.934;2023-03-14T07:14:27;9.60;99.90
35027;DHT22;60696;51.426;6.934;2023-03-14T07:16:52;9.60;99.90
35027;DHT22;60696;51.426;6.934;2023-03-14T07:19:18;9.70;99.90
35027;DHT22;60696;51.426;6.934;2023-03-14T07:21:43;9.80;99.90
35027;DHT22;60696;51.426;6.934;2023-03-14T07:24:09;9.80;99.90
35027;DHT22;60696;51.426;6.934;2023-03-14T07:26:35;9.90;99.90
35027;DHT22;60696;51.426;6.934;2023-03-14T07:29:01;9.90;99.90
35027;DHT22;60696;51.426;6.934;2023-03-14T07:31:28;9.90;99.90
35027;DHT22;60696;51.426;6.934;2023-03-14T07:33:54;10.00;99.90
35027;DHT22;60696;51.426;6.934;2023-03-14T07:36:20;10.00;99.90
35027;DHT22;60696;51.426;6.934;2023-03-14T07:38:45;10.00;99.90
35027;DHT22;60696;51.426;6.934;2023-03-14T07:41:11;10.00;99.90
35027;DHT22;60696;51.426;6.934;2023-03-14T07:43:37;10.00;99.90
35027;DHT22;60696;51.426;6.934;2023-03-14T07:46:02;10.00;99.90
35027;DHT22;60696;51.426;6.934;2023-03-14T07:48:28;10.10;99.90
35027;DHT22;60696;51.426;6.934;2023-03-14T07:50:55;10.00;99.90
35027;DHT22;60696;51.426;6.934;2023-03-14T07:53:21;10.00;99.90
35027;DHT22;60696;51.426;6.934;2023-03-14T07:55:47;10.00;99.90
35027;DHT22;60696;51.426;6.934;2023-03-14T07:58:13;9.90;99.90
35027;DHT22;60696;51.426;6.934;2023-03-14T08:00:39;10.00;99.90
35027;DHT22;60696;51.426;6.934;2023-03-14T08:03:05;10.00;99.90
35027;DHT22;60696;51.426;6.934;2023-03-14T08:05:31;10.00;99.90
35027;DHT22;60696;51.426;6.934;2023-03-14T08:07:59;10.00;99.90
35027;DHT22;60696;51.426;6.934;2023-03-14T08:10:24;10.00;99.90
35027;DHT22;60696;51.426;6.934;2023-03-14T08:12:51;10.10;99.90
35027;DHT22;60696;51.426;6.934;2023-03-14T08:15:18;10.20;99.90
35027;DHT22;60696;51.426;6.934;2023-03-14T08:17:44;10.10;99.90
35027;DHT22;60696;51.426;6.934;2023-03-14T08:20:11;10.10;99.90
35027;DHT22;60696;51.426;6.934;2023-03-14T08:22:38;10.10;99.90
35027;DHT22;60696;51.426;6.934;2023-03-14T08:25:04;10.00;99.90
35027;DHT22;60696;51.426;6.934;2023-03-14T08:27:30;10.10;99.90
35027;DHT22;60696;51.426;6.934;2023-03-14T08:29:55;10.10;99.90
35027;DHT22;60696;51.426;6.934;2023-03-14T08:32:21;10.30;99.90
35027;DHT22;60696;51.426;6.934;2023-03-14T08:34:49;10.50;99.90
35027;DHT22;60696;51.426;6.934;2023-03-14T08:37:14;10.60;99.90
35027;DHT22;60696;51.426;6.934;2023-03-14T08:39:40;10.70;99.90
35027;DHT22;60696;51.426;6.934;2023-03-14T08:42:05;10.90;99.90
35027;DHT22;60696;51.426;6.934;2023-03-14T08:44:31;10.80;99.90
35027;DHT22;60696;51.426;6.934;2023-03-14T08:46:57;10.70;99.90
35027;DHT22;60696;51.426;6.934;2023-03-14T08:49:22;10.60;99.90
35027;DHT22;60696;51.426;6.934;2023-03-14T08:51:48;10.60;99.90
35027;DHT22;60696;51.426;6.934;2023-03-14T08:54:14;10.50;99.90
35027;DHT22;60696;51.426;6.934;2023-03-14T08:56:39;10.50;99.90
35027;DHT22;60696;51.426;6.934;2023-03-14T08:59:05;10.40;99.90
35027;DHT22;60696;51.426;6.934;2023-03-14T09:01:31;10.30;99.90
35027;DHT22;60696;51.426;6.934;2023-03-14T09:03:57;10.30;99.90
35027;DHT22;60696;51.426;6.934;2023-03-14T09:06:22;10.30;99.90
35027;DHT22;60696;51.426;6.934;2023-03-14T09:08:48;10.20;99.90
35027;DHT22;60696;51.426;6.934;2023-03-14T09:11:14;10.20;99.90
35027;DHT22;60696;51.426;6.934;2023-03-14T09:13:40;10.10;99.90
35027;DHT22;60696;51.426;6.934;2023-03-14T09:16:06;10.10;99.90
35027;DHT22;60696;51.426;6.934;2023-03-14T09:18:32;10.20;99.90
35027;DHT22;60696;51.426;6.934;2023-03-14T09:20:58;10.10;99.90
35027;DHT22;60696;51.426;6.934;2023-03-14T09:23:23;10.10;99.90
35027;DHT22;60696;51.426;6.934;2023-03-14T09:25:53;9.80;99.90
35027;DHT22;60696;51.426;6.934;2023-03-14T09:28:19;9.50;99.90
35027;DHT22;60696;51.426;6.934;2023-03-14T09:30:44;9.20;99.90
35027;DHT22;60696;51.426;6.934;2023-03-14T09:33:10;8.90;99.90
35027;DHT22;60696;51.426;6.934;2023-03-14T09:35:35;8.90;99.90
35027;DHT22;60696;51.426;6.934;2023-03-14T09:38:01;8.90;99.90
35027;DHT22;60696;51.426;6.934;2023-03-14T09:40:31;8.90;99.90
35027;DHT22;60696;51.426;6.934;2023-03-14T09:42:59;8.80;99.90
35027;DHT22;60696;51.426;6.934;2023-03-14T09:45:33;8.80;99.90
35027;DHT22;60696;51.426;6.934;2023-03-14T09:48:00;8.70;99.90
35027;DHT22;60696;51.426;6.934;2023-03-14T09:50:37;8.60;99.90
35027;DHT22;60696;51.426;6.934;2023-03-14T09:53:09;8.50;99.90
35027;DHT22;60696;51.426;6.934;2023-03-14T09:55:36;8.50;99.90
35027;DHT22;60696;51.426;6.934;2023-03-14T09:58:08;8.40;99.90
35027;DHT22;60696;51.426;6.934;2023-03-14T10:00:35;8.40;99.90
35027;DHT22;60696;51.426;6.934;2023-03-14T10:05:39;8.50;99.90
35027;DHT22;60696;51.426;6.934;2023-03-14T10:08:05;8.50;99.90
35027;DHT22;60696;51.426;6.934;2023-03-14T10:10:32;8.50;99.90
35027;DHT22;60696;51.426;6.934;2023-03-14T10:15:36;8.50;99.90
35027;DHT22;60696;51.426;6.934;2023-03-14T10:18:04;8.40;99.90
35027;DHT22;60696;51.426;6.934;2023-03-14T10:20:40;8.30;99.90
35027;DHT22;60696;51.426;6.934;2023-03-14T10:23:22;8.20;99.90
35027;DHT22;60696;51.426;6.934;2023-03-14T10:26:12;8.10;99.90
35027;DHT22;60696;51.426;6.934;2023-03-14T10:28:43;8.10;99.90
35027;DHT22;60696;51.426;6.934;2023-03-14T10:31:09;8.20;99.90
35027;DHT22;60696;51.426;6.934;2023-03-14T10:33:37;8.20;99.90
35027;DHT22;60696;51.426;6.934;2023-03-14T10:36:18;8.20;99.90
35027;DHT22;60696;51.426;6.934;2023-03-14T10:38:45;8.20;99.90
35027;DHT22;60696;51.426;6.934;2023-03-14T10:41:30;8.00;99.90
35027;DHT22;60696;51.426;6.934;2023-03-14T10:43:57;8.10;99.90
35027;DHT22;60696;51.426;6.934;2023-03-14T10:46:26;8.00;99.90
35027;DHT22;60696;51.426;6.934;2023-03-14T10:48:53;8.00;99.90
35027;DHT22;60696;51.426;6.934;2023-03-14T10:51:28;7.80;99.90
35027;DHT22;60696;51.426;6.934;2023-03-14T10:54:30;7.70;99.90
35027;DHT22;60696;51.426;6.934;2023-03-14T10:57:01;7.60;99.90
35027;DHT22;60696;51.426;6.934;2023-03-14T10:59:37;7.60;99.90
35027;DHT22;60696;51.426;6.934;2023-03-14T11:05:15;7.50;99.90
35027;DHT22;60696;51.426;6.934;2023-03-14T11:07:44;7.50;99.90
35027;DHT22;60696;51.426;6.934;2023-03-14T11:13:01;7.70;99.90
35027;DHT22;60696;51.426;6.934;2023-03-14T11:15:56;7.60;99.90
35027;DHT22;60696;51.426;6.934;2023-03-14T11:26:48;7.60;99.90
35027;DHT22;60696;51.426;6.934;2023-03-14T11:29:26;7.80;99.90
35027;DHT22;60696;51.426;6.934;2023-03-14T11:31:57;7.80;99.90
35027;DHT22;60696;51.426;6.934;2023-03-14T11:34:39;8.20;99.90
35027;DHT22;60696;51.426;6.934;2023-03-14T11:37:27;8.70;99.90
35027;DHT22;60696;51.426;6.934;2023-03-14T11:40:27;8.70;99.90
35027;DHT22;60696;51.426;6.934;2023-03-14T11:43:00;8.40;99.90
35027;DHT22;60696;51.426;6.934;2023-03-14T11:45:37;8.20;99.90
35027;DHT22;60696;51.426;6.934;2023-03-14T11:50:36;7.80;99.90
35027;DHT22;60696;51.426;6.934;2023-03-14T11:53:17;7.80;99.90
35027;DHT22;60696;51.426;6.934;2023-03-14T11:55:45;7.70;99.90
35027;DHT22;60696;51.426;6.934;2023-03-14T11:58:23;7.50;99.90
35027;DHT22;60696;51.426;6.934;2023-03-14T12:00:51;7.40;99.90
35027;DHT22;60696;51.426;6.934;2023-03-14T12:08:48;7.40;99.90
35027;DHT22;60696;51.426;6.934;2023-03-14T12:14:00;7.80;99.90
35027;DHT22;60696;51.426;6.934;2023-03-14T12:16:34;8.10;99.90
35027;DHT22;60696;51.426;6.934;2023-03-14T12:21:58;8.80;99.90
35027;DHT22;60696;51.426;6.934;2023-03-14T12:24:30;8.70;99.90
35027;DHT22;60696;51.426;6.934;2023-03-14T12:26:59;8.70;99.90
35027;DHT22;60696;51.426;6.934;2023-03-14T12:29:25;8.70;99.90
35027;DHT22;60696;51.426;6.934;2023-03-14T12:37:10;9.20;99.90
35027;DHT22;60696;51.426;6.934;2023-03-14T12:39:57;8.80;99.90
35027;DHT22;60696;51.426;6.934;2023-03-14T12:42:45;8.60;99.90
35027;DHT22;60696;51.426;6.934;2023-03-14T12:45:32;8.90;99.90
35027;DHT22;60696;51.426;6.934;2023-03-14T12:50:53;8.00;99.90
35027;DHT22;60696;51.426;6.934;2023-03-14T13:02:01;7.00;99.90
35027;DHT22;60696;51.426;6.934;2023-03-14T13:04:43;7.00;99.90
35027;DHT22;60696;51.426;6.934;2023-03-14T13:12:34;7.80;99.90
35027;DHT22;60696;51.426;6.934;2023-03-14T13:15:13;7.80;99.90
35027;DHT22;60696;51.426;6.934;2023-03-14T13:17:40;7.80;99.90
35027;DHT22;60696;51.426;6.934;2023-03-14T13:22:54;7.60;99.90
35027;DHT22;60696;51.426;6.934;2023-03-14T13:25:20;7.60;99.90
35027;DHT22;60696;51.426;6.934;2023-03-14T13:27:48;7.50;99.90
35027;DHT22;60696;51.426;6.934;2023-03-14T13:30:29;7.30;99.90
35027;DHT22;60696;51.426;6.934;2023-03-14T13:33:04;7.30;99.90
35027;DHT22;60696;51.426;6.934;2023-03-14T13:35:43;7.20;99.90
35027;DHT22;60696;51.426;6.934;2023-03-14T13:38:19;7.30;99.90
35027;DHT22;60696;51.426;6.934;2023-03-14T13:40:45;7.40;99.90
35027;DHT22;60696;51.426;6.934;2023-03-14T13:43:13;7.60;99.90
35027;DHT22;60696;51.426;6.934;2023-03-14T13:45:52;7.80;99.90
35027;DHT22;60696;51.426;6.934;2023-03-14T13:48:19;8.00;99.90
35027;DHT22;60696;51.426;6.934;2023-03-14T13:50:51;8.20;99.90
35027;DHT22;60696;51.426;6.934;2023-03-14T13:53:18;8.10;99.90
35027;DHT22;60696;51.426;6.934;2023-03-14T13:55:43;8.30;99.90
35027;DHT22;60696;51.426;6.934;2023-03-14T13:58:19;8.30;99.90
35027;DHT22;60696;51.426;6.934;2023-03-14T14:01:03;8.40;99.90
35027;DHT22;60696;51.426;6.934;2023-03-14T14:03:32;8.70;99.90
35027;DHT22;60696;51.426;6.934;2023-03-14T14:05:58;8.80;99.90
35027;DHT22;60696;51.426;6.934;2023-03-14T14:08:25;8.70;99.90
35027;DHT22;60696;51.426;6.934;2023-03-14T14:10:55;9.00;99.90
35027;DHT22;60696;51.426;6.934;2023-03-14T14:13:24;9.30;99.90
35027;DHT22;60696;51.426;6.934;2023-03-14T14:15:52;9.60;99.90
35027;DHT22;60696;51.426;6.934;2023-03-14T14:18:22;9.70;99.90
35027;DHT22;60696;51.426;6.934;2023-03-14T14:20:50;9.80;99.90
35027;DHT22;60696;51.426;6.934;2023-03-14T14:23:25;10.00;99.90
35027;DHT22;60696;51.426;6.934;2023-03-14T14:25:54;9.90;99.90
35027;DHT22;60696;51.426;6.934;2023-03-14T14:33:28;9.30;99.90
35027;DHT22;60696;51.426;6.934;2023-03-14T14:35:58;9.00;99.90
35027;DHT22;60696;51.426;6.934;2023-03-14T14:38:26;9.00;99.90
35027;DHT22;60696;51.426;6.934;2023-03-14T14:40:54;8.90;99.90
35027;DHT22;60696;51.426;6.934;2023-03-14T14:43:23;8.70;99.90
35027;DHT22;60696;51.426;6.934;2023-03-14T14:45:52;8.70;99.90
35027;DHT22;60696;51.426;6.934;2023-03-14T14:48:25;8.50;99.90
35027;DHT22;60696;51.426;6.934;2023-03-14T14:50:59;8.50;99.90
35027;DHT22;60696;51.426;6.934;2023-03-14T14:53:40;8.30;95.60
35027;DHT22;60696;51.426;6.934;2023-03-14T14:56:17;8.40;99.90
35027;DHT22;60696;51.426;6.934;2023-03-14T14:58:48;8.70;99.90
35027;DHT22;60696;51.426;6.934;2023-03-14T15:01:16;8.30;95.50
35027;DHT22;60696;51.426;6.934;2023-03-14T15:03:44;8.30;97.30
35027;DHT22;60696;51.426;6.934;2023-03-14T15:06:12;8.30;98.60
35027;DHT22;60696;51.426;6.934;2023-03-14T15:08:38;8.30;99.90
35027;DHT22;60696;51.426;6.934;2023-03-14T15:11:04;8.30;99.90
35027;DHT22;60696;51.426;6.934;2023-03-14T15:13:30;8.20;98.90
35027;DHT22;60696;51.426;6.934;2023-03-14T15:15:55;8.20;99.30
35027;DHT22;60696;51.426;6.934;2023-03-14T15:18:23;8.30;99.90
35027;DHT22;60696;51.426;6.934;2023-03-14T15:20:50;8.20;96.70
35027;DHT22;60696;51.426;6.934;2023-03-14T15:23:20;8.20;97.50
35027;DHT22;60696;51.426;6.934;2023-03-14T15:25:47;8.10;97.30
35027;DHT22;60696;51.426;6.934;2023-03-14T15:28:19;8.00;98.30
35027;DHT22;60696;51.426;6.934;2023-03-14T15:30:52;7.90;96.50
35027;DHT22;60696;51.426;6.934;2023-03-14T15:33:18;7.70;93.10
35027;DHT22;60696;51.426;6.934;2023-03-14T15:35:44;7.60;92.10
35027;DHT22;60696;51.426;6.934;2023-03-14T15:38:12;7.60;94.10
35027;DHT22;60696;51.426;6.934;2023-03-14T15:40:38;7.70;96.20
35027;DHT22;60696;51.426;6.934;2023-03-14T15:43:04;7.70;93.10
35027;DHT22;60696;51.426;6.934;2023-03-14T15:45:30;7.60;94.50
35027;DHT22;60696;51.426;6.934;2023-03-14T15:47:55;7.60;93.30
35027;DHT22;60696;51.426;6.934;2023-03-14T15:50:21;7.60;94.80
35027;DHT22;60696;51.426;6.934;2023-03-14T15:52:48;7.50;95.10
35027;DHT22;60696;51.426;6.934;2023-03-14T15:55:13;7.50;94.90
35027;DHT22;60696;51.426;6.934;2023-03-14T15:57:41;7.50;95.50
35027;DHT22;60696;51.426;6.934;2023-03-14T16:00:10;7.50;96.90
35027;DHT22;60696;51.426;6.934;2023-03-14T16:02:40;7.60;95.80
35027;DHT22;60696;51.426;6.934;2023-03-14T16:05:08;7.70;95.40
35027;DHT22;60696;51.426;6.934;2023-03-14T16:07:33;7.60;93.00
35027;DHT22;60696;51.426;6.934;2023-03-14T16:09:59;7.60;93.40
35027;DHT22;60696;51.426;6.934;2023-03-14T16:12:25;7.50;93.70
35027;DHT22;60696;51.426;6.934;2023-03-14T16:14:50;7.50;93.70
35027;DHT22;60696;51.426;6.934;2023-03-14T16:17:16;7.50;93.40
35027;DHT22;60696;51.426;6.934;2023-03-14T16:19:41;7.60;95.60
35027;DHT22;60696;51.426;6.934;2023-03-14T16:22:07;7.50;94.20
35027;DHT22;60696;51.426;6.934;2023-03-14T16:24:33;7.40;93.90
35027;DHT22;60696;51.426;6.934;2023-03-14T16:26:58;7.40;94.30
35027;DHT22;60696;51.426;6.934;2023-03-14T16:29:24;7.40;94.90
35027;DHT22;60696;51.426;6.934;2023-03-14T16:31:49;7.30;93.40
35027;DHT22;60696;51.426;6.934;2023-03-14T16:34:18;7.30;94.00
35027;DHT22;60696;51.426;6.934;2023-03-14T16:36:43;7.30;93.30
35027;DHT22;60696;51.426;6.934;2023-03-14T16:39:09;7.30;93.30
35027;DHT22;60696;51.426;6.934;2023-03-14T16:41:35;7.30;93.20
35027;DHT22;60696;51.426;6.934;2023-03-14T16:44:01;7.20;93.10
35027;DHT22;60696;51.426;6.934;2023-03-14T16:46:27;7.20;93.60
35027;DHT22;60696;51.426;6.934;2023-03-14T16:48:55;7.10;93.80
35027;DHT22;60696;51.426;6.934;2023-03-14T16:51:21;7.00;93.50
35027;DHT22;60696;51.426;6.934;2023-03-14T16:53:56;7.00;93.70
35027;DHT22;60696;51.426;6.934;2023-03-14T16:56:22;6.80;93.60
35027;DHT22;60696;51.426;6.934;2023-03-14T16:58:48;6.80;93.70
35027;DHT22;60696;51.426;6.934;2023-03-14T17:01:16;6.80;93.00
35027;DHT22;60696;51.426;6.934;2023-03-14T17:03:45;6.70;92.60